Time;durP1;ratioP1;P1;durP2;ratioP2;P2;SDS_P1;SDS_P2;PMS_P1;PMS_P2;Temp;Humidity;BMP_temperature;BMP_pressure;BME280_temperature;BME280_humidity;BME280_pressure;Samples;Min_cycle;Max_cycle;Signal;HPM_P1;HPM_P2
2022/03/06 00:00:20;;;;;;;11.17;6.10;;;4.40;93.10;;;;;;7389628;19;20138;-73
2022/03/06 00:02:46;;;;;;;11.93;6.20;;;4.50;93.10;;;;;;7390719;19;20123;-73
2022/03/06 00:05:12;;;;;;;16.00;6.70;;;4.40;93.00;;;;;;7391846;19;20134;-74
2022/03/06 00:07:38;;;;;;;14.50;7.20;;;4.50;92.90;;;;;;7392411;19;20133;-74
2022/03/06 00:10:04;;;;;;;9.50;6.03;;;4.50;93.00;;;;;;7390766;19;20203;-72
2022/03/06 00:12:30;;;;;;;8.50;5.73;;;4.50;92.80;;;;;;7395907;19;20534;-72
2022/03/06 00:14:56;;;;;;;13.43;6.23;;;4.50;92.80;;;;;;7394238;19;20130;-72
2022/03/06 00:17:22;;;;;;;12.40;6.43;;;4.50;93.10;;;;;;7389703;19;20138;-72
2022/03/06 00:19:47;;;;;;;13.20;6.73;;;4.50;92.80;;;;;;7390117;19;20151;-75
2022/03/06 00:22:13;;;;;;;10.63;5.90;;;4.50;92.90;;;;;;7392062;19;20131;-74
2022/03/06 00:24:39;;;;;;;10.33;5.93;;;4.50;93.00;;;;;;7396023;19;20130;-74
2022/03/06 00:27:05;;;;;;;9.67;5.73;;;4.20;93.10;;;;;;7391082;19;20169;-72
2022/03/06 00:29:30;;;;;;;13.27;5.97;;;4.00;93.40;;;;;;7391305;19;20131;-74
2022/03/06 00:31:56;;;;;;;9.37;5.93;;;3.70;93.70;;;;;;7397238;19;20126;-73
2022/03/06 00:34:22;;;;;;;13.27;7.13;;;3.50;94.20;;;;;;7397867;19;20538;-75
2022/03/06 00:36:48;;;;;;;12.70;6.73;;;3.30;94.50;;;;;;7394143;19;20141;-73
2022/03/06 00:39:14;;;;;;;13.57;7.13;;;3.20;94.90;;;;;;7392714;19;20464;-72
2022/03/06 00:41:39;;;;;;;8.60;5.27;;;3.40;94.80;;;;;;7394769;19;20147;-73
2022/03/06 00:44:05;;;;;;;13.00;6.80;;;3.50;94.70;;;;;;7389417;19;20478;-73
2022/03/06 00:46:31;;;;;;;12.57;7.00;;;3.90;94.40;;;;;;7388023;19;20152;-73
2022/03/06 00:48:57;;;;;;;11.53;6.80;;;3.40;94.60;;;;;;7389173;19;20132;-74
2022/03/06 00:51:23;;;;;;;11.73;6.93;;;3.50;94.90;;;;;;7394917;19;20150;-72
2022/03/06 00:53:48;;;;;;;11.67;6.60;;;3.20;95.20;;;;;;7397706;19;20605;-74
2022/03/06 00:56:15;;;;;;;11.60;6.10;;;3.30;95.50;;;;;;7389751;19;20133;-74
2022/03/06 00:58:40;;;;;;;12.23;6.83;;;3.40;95.40;;;;;;7389375;19;20130;-73
2022/03/06 01:01:06;;;;;;;11.60;6.83;;;3.60;95.30;;;;;;7388835;19;20535;-74
2022/03/06 01:03:32;;;;;;;11.37;5.97;;;3.80;95.20;;;;;;7389107;19;20174;-74
2022/03/06 01:05:58;;;;;;;11.50;6.40;;;3.80;94.90;;;;;;7389445;19;20138;-72
2022/03/06 01:08:24;;;;;;;13.07;6.70;;;3.90;95.10;;;;;;7389082;19;20134;-74
2022/03/06 01:10:51;;;;;;;11.47;6.13;;;3.80;95.20;;;;;;7395940;19;20138;-72
2022/03/06 01:13:19;;;;;;;17.07;6.60;;;3.60;95.40;;;;;;7396675;19;20133;-74
2022/03/06 01:15:45;;;;;;;12.37;6.13;;;3.50;95.70;;;;;;7389143;19;20194;-74
2022/03/06 01:18:11;;;;;;;11.77;6.13;;;3.60;95.90;;;;;;7385110;19;20174;-74
2022/03/06 01:20:38;;;;;;;10.20;6.17;;;3.40;95.80;;;;;;7388557;19;20127;-73
2022/03/06 01:23:06;;;;;;;10.30;5.80;;;3.30;96.00;;;;;;7388594;19;20135;-73
2022/03/06 01:25:32;;;;;;;11.30;6.50;;;3.50;95.40;;;;;;7391110;19;20130;-72
2022/03/06 01:27:59;;;;;;;10.50;6.13;;;3.30;95.50;;;;;;7386540;19;20161;-72
2022/03/06 01:30:25;;;;;;;10.03;6.33;;;3.20;95.60;;;;;;7389384;19;20135;-72
2022/03/06 01:32:52;;;;;;;11.67;6.70;;;3.40;95.40;;;;;;7393786;19;20141;-72
2022/03/06 01:35:18;;;;;;;10.93;5.80;;;3.30;95.50;;;;;;7386670;19;20134;-73
2022/03/06 01:37:44;;;;;;;11.63;6.80;;;3.50;95.30;;;;;;7386682;19;20161;-72
2022/03/06 01:40:11;;;;;;;11.07;6.43;;;3.60;95.30;;;;;;7385784;19;20150;-72
2022/03/06 01:42:43;;;;;;;12.40;6.37;;;3.60;95.20;;;;;;7392089;19;20147;-74
2022/03/06 01:45:10;;;;;;;11.50;6.50;;;3.40;95.10;;;;;;7386386;19;20142;-72
2022/03/06 01:47:40;;;;;;;10.10;6.03;;;3.40;95.50;;;;;;7384582;19;20174;-73
2022/03/06 01:50:15;;;;;;;9.97;6.30;;;3.40;95.50;;;;;;7390549;19;20134;-72
2022/03/06 01:52:42;;;;;;;10.57;6.03;;;3.50;95.40;;;;;;7386478;19;20134;-74
2022/03/06 01:55:08;;;;;;;11.53;6.30;;;3.60;95.10;;;;;;7386213;19;20153;-74
2022/03/06 01:57:34;;;;;;;12.47;5.90;;;3.50;95.20;;;;;;7385924;19;20857;-73
2022/03/06 02:00:01;;;;;;;14.33;6.70;;;3.50;95.20;;;;;;7384989;19;20134;-74
2022/03/06 02:02:27;;;;;;;12.93;6.70;;;3.20;95.30;;;;;;7387244;19;20143;-74
2022/03/06 02:04:53;;;;;;;10.83;5.70;;;3.10;95.50;;;;;;7390583;19;20172;-73
2022/03/06 02:07:18;;;;;;;12.20;6.67;;;3.00;95.80;;;;;;7387211;19;20599;-73
2022/03/06 02:09:44;;;;;;;12.83;6.43;;;2.60;96.10;;;;;;7392091;19;20194;-73
2022/03/06 02:12:23;;;;;;;10.83;5.93;;;3.00;96.30;;;;;;7388358;19;20178;-74
2022/03/06 02:14:53;;;;;;;10.67;6.30;;;3.10;95.90;;;;;;7387352;19;20134;-73
2022/03/06 02:17:19;;;;;;;11.43;6.93;;;3.00;96.10;;;;;;7391068;19;20138;-73
2022/03/06 02:19:52;;;;;;;13.00;6.07;;;3.00;96.10;;;;;;7383609;19;20167;-72
2022/03/06 02:22:47;;;;;;;12.70;6.47;;;3.00;96.40;;;;;;7386888;19;20156;-73
2022/03/06 02:25:19;;;;;;;10.53;6.07;;;3.30;95.90;;;;;;7384201;19;20164;-72
2022/03/06 02:27:46;;;;;;;11.37;6.40;;;3.30;95.60;;;;;;7386512;19;20709;-74
2022/03/06 02:30:15;;;;;;;9.60;6.17;;;3.00;96.00;;;;;;7391032;19;20134;-72
2022/03/06 02:32:42;;;;;;;9.83;6.47;;;2.80;96.50;;;;;;7392472;19;20114;-74
2022/03/06 02:35:09;;;;;;;12.03;6.63;;;2.70;96.70;;;;;;7393635;19;20167;-74
2022/03/06 02:37:35;;;;;;;13.03;6.17;;;2.70;96.90;;;;;;7393371;19;20614;-74
2022/03/06 02:40:03;;;;;;;12.83;6.87;;;2.70;97.00;;;;;;7390029;19;20127;-73
2022/03/06 02:42:35;;;;;;;8.80;5.80;;;2.60;96.90;;;;;;7393206;19;20130;-74
2022/03/06 02:45:12;;;;;;;11.00;6.13;;;2.70;97.10;;;;;;7391636;19;20164;-74
2022/03/06 02:47:38;;;;;;;10.33;6.43;;;2.90;97.00;;;;;;7398364;19;20158;-72
2022/03/06 02:50:07;;;;;;;11.50;6.37;;;2.90;96.60;;;;;;7392069;19;20473;-74
2022/03/06 02:52:33;;;;;;;12.80;6.67;;;2.80;96.80;;;;;;7393380;19;20131;-75
2022/03/06 02:54:59;;;;;;;11.43;5.97;;;2.70;97.20;;;;;;7394800;19;20587;-72
2022/03/06 02:57:25;;;;;;;10.37;6.10;;;2.90;97.10;;;;;;7389732;19;20143;-72
2022/03/06 02:59:51;;;;;;;11.90;6.50;;;3.10;96.70;;;;;;7392616;19;20131;-73
2022/03/06 03:02:17;;;;;;;11.53;6.17;;;3.40;97.00;;;;;;7390014;19;20126;-74
2022/03/06 03:04:43;;;;;;;11.23;6.03;;;3.30;96.50;;;;;;7391935;19;20165;-73
2022/03/06 03:07:09;;;;;;;11.33;5.83;;;3.40;96.60;;;;;;7392185;19;20309;-72
2022/03/06 03:09:36;;;;;;;9.93;5.63;;;3.40;96.70;;;;;;7395175;19;20138;-72
2022/03/06 03:12:04;;;;;;;12.00;6.27;;;3.50;96.60;;;;;;7394963;19;20138;-73
2022/03/06 03:14:33;;;;;;;10.77;6.33;;;3.40;96.50;;;;;;7391147;19;20134;-71
2022/03/06 03:17:00;;;;;;;11.70;6.50;;;3.10;96.70;;;;;;7393448;19;20547;-73
2022/03/06 03:19:26;;;;;;;12.10;6.50;;;2.90;97.20;;;;;;7387526;19;20819;-73
2022/03/06 03:21:53;;;;;;;12.53;6.27;;;2.60;97.70;;;;;;7389879;19;20143;-74
2022/03/06 03:24:18;;;;;;;12.93;5.77;;;3.00;97.60;;;;;;7391705;19;20142;-73
2022/03/06 03:26:44;;;;;;;9.67;5.33;;;3.10;97.30;;;;;;7392953;19;20687;-73
2022/03/06 03:29:10;;;;;;;9.80;6.07;;;3.10;97.20;;;;;;7389378;19;20169;-72
2022/03/06 03:31:36;;;;;;;11.20;5.73;;;3.10;97.10;;;;;;7389228;19;20131;-72
2022/03/06 03:34:02;;;;;;;12.47;6.63;;;3.10;97.20;;;;;;7391848;19;20186;-71
2022/03/06 03:36:27;;;;;;;11.00;5.93;;;3.20;97.30;;;;;;7387863;19;20143;-72
2022/03/06 03:38:53;;;;;;;10.57;6.30;;;3.20;97.50;;;;;;7390928;19;20131;-71
2022/03/06 03:41:19;;;;;;;14.23;6.80;;;3.10;97.60;;;;;;7386333;19;20134;-74
2022/03/06 03:43:45;;;;;;;9.23;5.57;;;3.20;97.70;;;;;;7389152;19;20190;-71
2022/03/06 03:46:11;;;;;;;11.73;5.93;;;3.20;97.50;;;;;;7393505;19;20150;-73
2022/03/06 03:48:36;;;;;;;12.70;6.20;;;3.20;97.50;;;;;;7392005;19;20469;-73
2022/03/06 03:51:02;;;;;;;9.30;5.40;;;2.70;98.00;;;;;;7389845;19;20649;-74
2022/03/06 03:53:28;;;;;;;11.60;5.87;;;2.40;98.60;;;;;;7388759;19;20171;-73
2022/03/06 03:55:54;;;;;;;9.03;5.73;;;2.70;98.70;;;;;;7390588;19;20138;-72
2022/03/06 03:58:20;;;;;;;10.33;6.07;;;2.90;98.20;;;;;;7389663;19;20142;-73
2022/03/06 04:00:51;;;;;;;11.50;6.00;;;2.60;98.60;;;;;;7388704;19;20582;-72
2022/03/06 04:03:16;;;;;;;12.43;6.03;;;2.90;98.50;;;;;;7388545;19;20173;-73
2022/03/06 04:05:42;;;;;;;14.27;6.67;;;2.80;98.60;;;;;;7393866;19;20825;-73
2022/03/06 04:08:08;;;;;;;10.90;5.63;;;2.90;98.40;;;;;;7390419;19;20127;-72
2022/03/06 04:10:33;;;;;;;9.87;5.63;;;2.80;98.30;;;;;;7389943;19;20138;-72
2022/03/06 04:12:59;;;;;;;14.27;6.70;;;2.60;98.90;;;;;;7387428;19;20747;-72
2022/03/06 04:15:25;;;;;;;11.53;5.97;;;2.70;98.80;;;;;;7391101;19;20479;-73
2022/03/06 04:17:51;;;;;;;12.60;6.50;;;2.50;99.20;;;;;;7386411;19;20151;-72
2022/03/06 04:20:16;;;;;;;10.50;6.17;;;2.50;99.60;;;;;;7386241;19;20155;-73
2022/03/06 04:22:42;;;;;;;12.53;6.43;;;2.70;99.30;;;;;;7387494;19;20125;-75
2022/03/06 04:25:08;;;;;;;11.20;5.73;;;2.80;99.10;;;;;;7391257;19;20853;-73
2022/03/06 04:27:34;;;;;;;12.77;6.70;;;2.90;98.90;;;;;;7390213;19;20598;-72
2022/03/06 04:29:59;;;;;;;10.60;5.77;;;3.00;98.70;;;;;;7387443;19;20138;-72
2022/03/06 04:32:25;;;;;;;11.20;5.70;;;3.10;98.70;;;;;;7387366;19;20130;-73
2022/03/06 04:34:52;;;;;;;12.30;5.73;;;3.10;98.70;;;;;;7388368;19;20465;-72
2022/03/06 04:37:18;;;;;;;10.40;5.77;;;3.10;98.60;;;;;;7388416;19;20609;-73
2022/03/06 04:39:44;;;;;;;13.00;6.80;;;3.10;98.70;;;;;;7387814;19;20119;-73
2022/03/06 04:42:09;;;;;;;10.00;5.87;;;3.10;98.80;;;;;;7387040;19;20123;-72
2022/03/06 04:44:35;;;;;;;11.70;6.30;;;2.80;99.00;;;;;;7388711;19;20228;-72
2022/03/06 04:47:01;;;;;;;10.30;5.87;;;2.70;99.40;;;;;;7386476;19;20143;-72
2022/03/06 04:49:27;;;;;;;9.23;5.53;;;2.50;99.50;;;;;;7388619;19;20151;-72
2022/03/06 04:51:52;;;;;;;10.43;5.70;;;2.30;99.80;;;;;;7384512;19;20191;-74
2022/03/06 04:54:20;;;;;;;10.83;6.43;;;2.40;99.90;;;;;;7386138;19;20135;-72
2022/03/06 04:56:46;;;;;;;11.83;5.60;;;2.40;99.70;;;;;;7386023;19;20504;-73
2022/03/06 04:59:12;;;;;;;12.70;7.00;;;2.10;99.80;;;;;;7390369;19;20142;-73
2022/03/06 05:01:38;;;;;;;10.70;6.10;;;2.20;99.90;;;;;;7386286;19;20494;-73
2022/03/06 05:04:04;;;;;;;9.83;5.90;;;2.20;99.90;;;;;;7387442;19;20135;-74
2022/03/06 05:06:30;;;;;;;11.33;6.17;;;2.20;99.90;;;;;;7388714;19;20136;-72
2022/03/06 05:08:56;;;;;;;9.83;5.73;;;2.10;99.90;;;;;;7392953;19;20159;-74
2022/03/06 05:11:23;;;;;;;10.40;6.27;;;2.10;99.90;;;;;;7387256;19;20167;-73
2022/03/06 05:13:49;;;;;;;11.87;6.33;;;2.20;99.90;;;;;;7387497;19;20142;-72
2022/03/06 05:16:15;;;;;;;14.13;6.20;;;2.00;99.90;;;;;;7387010;19;20995;-72
2022/03/06 05:18:41;;;;;;;11.37;6.10;;;2.00;99.90;;;;;;7386829;19;20202;-73
2022/03/06 05:21:06;;;;;;;11.13;5.53;;;2.10;99.90;;;;;;7384338;19;20172;-71
2022/03/06 05:23:32;;;;;;;10.87;6.13;;;2.00;99.90;;;;;;7387921;19;20514;-72
2022/03/06 05:25:58;;;;;;;12.77;6.43;;;2.30;99.90;;;;;;7384772;19;20150;-71
2022/03/06 05:28:27;;;;;;;12.90;6.13;;;2.40;99.90;;;;;;7386723;19;20133;-71
2022/03/06 05:30:53;;;;;;;9.30;5.47;;;2.00;99.90;;;;;;7391523;19;20511;-72
2022/03/06 05:33:19;;;;;;;9.50;5.80;;;2.40;99.90;;;;;;7385718;19;20147;-72
2022/03/06 05:35:49;;;;;;;11.63;6.13;;;2.50;99.90;;;;;;7384735;19;20565;-74
2022/03/06 05:38:14;;;;;;;10.97;6.40;;;2.50;99.90;;;;;;7385576;19;20589;-74
2022/03/06 05:40:40;;;;;;;11.43;6.27;;;2.40;99.90;;;;;;7383219;19;20372;-72
2022/03/06 05:43:06;;;;;;;10.60;5.70;;;2.40;99.90;;;;;;7385355;19;20145;-71
2022/03/06 05:45:32;;;;;;;10.27;6.13;;;2.30;99.90;;;;;;7384861;19;20138;-73
2022/03/06 05:47:59;;;;;;;11.87;6.23;;;2.60;99.90;;;;;;7387030;19;20133;-74
2022/03/06 05:50:25;;;;;;;13.07;6.00;;;2.80;99.90;;;;;;7390985;19;20930;-73
2022/03/06 05:52:51;;;;;;;12.70;6.60;;;2.90;99.90;;;;;;7385407;19;20221;-74
2022/03/06 05:55:17;;;;;;;13.27;6.30;;;3.00;99.90;;;;;;7386509;19;20166;-73
2022/03/06 05:57:44;;;;;;;11.47;6.83;;;3.00;99.90;;;;;;7384028;19;20627;-73
2022/03/06 06:00:11;;;;;;;11.97;6.10;;;3.00;99.90;;;;;;7387544;19;20149;-73
2022/03/06 06:02:40;;;;;;;14.80;7.17;;;3.00;99.90;;;;;;7386168;19;20467;-74
2022/03/06 06:05:08;;;;;;;13.43;6.50;;;2.90;99.90;;;;;;7390635;19;20131;-72
2022/03/06 06:07:34;;;;;;;11.20;6.17;;;3.00;99.90;;;;;;7390861;19;20127;-74
2022/03/06 06:10:00;;;;;;;13.53;6.77;;;2.90;99.90;;;;;;7395384;19;20570;-72
2022/03/06 06:12:26;;;;;;;12.43;6.33;;;3.00;99.90;;;;;;7400523;19;20134;-73
2022/03/06 06:14:52;;;;;;;10.80;6.13;;;3.10;99.90;;;;;;7391911;19;20127;-71
2022/03/06 06:17:18;;;;;;;9.73;5.87;;;3.10;99.90;;;;;;7396481;19;20178;-71
2022/03/06 06:19:45;;;;;;;9.77;6.07;;;3.10;99.90;;;;;;7388702;19;20170;-74
2022/03/06 06:22:11;;;;;;;10.43;6.33;;;3.00;99.90;;;;;;7393075;19;20169;-72
2022/03/06 06:24:36;;;;;;;12.40;6.60;;;3.10;99.90;;;;;;7391989;19;20134;-73
2022/03/06 06:27:02;;;;;;;13.93;5.87;;;3.10;99.90;;;;;;7389569;19;20159;-73
2022/03/06 06:29:29;;;;;;;9.60;6.03;;;3.10;99.90;;;;;;7396305;19;20163;-74
2022/03/06 06:31:55;;;;;;;12.33;6.30;;;3.10;99.90;;;;;;7401409;19;20143;-73
2022/03/06 06:34:20;;;;;;;15.30;6.77;;;3.10;99.90;;;;;;7394092;19;20141;-73
2022/03/06 06:36:47;;;;;;;11.17;6.50;;;3.20;99.90;;;;;;7393540;19;20159;-71
2022/03/06 06:39:13;;;;;;;11.10;6.43;;;3.20;99.90;;;;;;7393753;19;20182;-72
2022/03/06 06:41:39;;;;;;;14.23;7.33;;;2.90;99.90;;;;;;7394829;19;20647;-71
2022/03/06 06:44:06;;;;;;;11.40;6.27;;;2.60;99.90;;;;;;7394297;19;20164;-73
2022/03/06 06:46:33;;;;;;;14.47;6.43;;;2.80;99.90;;;;;;7389278;19;20199;-72
2022/03/06 06:48:59;;;;;;;11.03;6.13;;;3.00;99.90;;;;;;7393142;19;20175;-73
2022/03/06 06:51:25;;;;;;;10.33;6.67;;;3.00;99.90;;;;;;7402087;19;20126;-74
2022/03/06 06:53:51;;;;;;;11.63;6.73;;;3.10;99.90;;;;;;7393244;19;20131;-72
2022/03/06 06:56:16;;;;;;;11.73;6.43;;;3.30;99.80;;;;;;7394638;19;20494;-73
2022/03/06 06:58:42;;;;;;;14.70;6.67;;;3.50;99.60;;;;;;7393097;19;20883;-74
2022/03/06 07:01:08;;;;;;;12.27;6.33;;;3.50;99.50;;;;;;7390544;19;20213;-72
2022/03/06 07:03:34;;;;;;;11.77;6.10;;;3.50;99.40;;;;;;7396104;19;20137;-71
2022/03/06 07:06:00;;;;;;;10.80;6.77;;;3.60;99.40;;;;;;7394555;19;20134;-72
2022/03/06 07:08:26;;;;;;;11.10;6.77;;;3.60;99.30;;;;;;7407516;19;20162;-74
2022/03/06 07:10:52;;;;;;;11.23;5.90;;;3.50;99.60;;;;;;7402501;19;20599;-72
2022/03/06 07:13:17;;;;;;;10.87;6.50;;;3.50;99.70;;;;;;7392975;19;20139;-73
2022/03/06 07:15:43;;;;;;;13.20;7.17;;;3.50;99.70;;;;;;7391066;19;20131;-73
2022/03/06 07:18:09;;;;;;;12.10;6.47;;;3.60;99.60;;;;;;7391806;19;20233;-74
2022/03/06 07:20:35;;;;;;;12.27;6.77;;;3.20;99.90;;;;;;7393341;19;20465;-73
2022/03/06 07:23:00;;;;;;;13.03;6.70;;;3.40;99.90;;;;;;7392903;19;20193;-74
2022/03/06 07:25:26;;;;;;;11.50;6.83;;;3.60;99.90;;;;;;7395109;19;20190;-72
2022/03/06 07:27:52;;;;;;;12.87;7.40;;;3.70;99.80;;;;;;7398043;19;20130;-73
2022/03/06 07:30:18;;;;;;;11.63;6.43;;;3.80;99.50;;;;;;7393948;19;20155;-72
2022/03/06 07:32:46;;;;;;;12.77;7.00;;;3.80;99.30;;;;;;7393775;19;20145;-71
2022/03/06 07:35:15;;;;;;;14.40;7.37;;;3.50;99.80;;;;;;7391355;19;20142;-73
2022/03/06 07:37:41;;;;;;;11.03;6.73;;;3.70;99.70;;;;;;7390892;19;20171;-72
2022/03/06 07:40:09;;;;;;;12.47;6.90;;;3.70;99.70;;;;;;7392720;19;20123;-75
2022/03/06 07:42:35;;;;;;;15.27;6.97;;;3.70;99.50;;;;;;7393148;19;20494;-73
2022/03/06 07:45:02;;;;;;;11.03;6.83;;;3.70;99.70;;;;;;7398740;19;20150;-71
2022/03/06 07:47:28;;;;;;;15.17;7.57;;;3.80;99.70;;;;;;7384991;19;20139;-71
2022/03/06 07:49:53;;;;;;;12.60;7.10;;;3.90;99.70;;;;;;7389677;19;20148;-71
2022/03/06 07:52:19;;;;;;;11.20;6.60;;;3.90;99.60;;;;;;7391471;19;20138;-73
2022/03/06 07:54:45;;;;;;;10.43;6.67;;;3.80;99.70;;;;;;7389345;19;20142;-72
2022/03/06 07:57:11;;;;;;;11.40;6.90;;;3.90;99.70;;;;;;7389210;19;20130;-72
2022/03/06 07:59:37;;;;;;;11.80;6.37;;;3.80;99.90;;;;;;7390205;19;20158;-74
2022/03/06 08:02:03;;;;;;;11.77;6.73;;;3.90;99.90;;;;;;7393531;19;20261;-72
2022/03/06 08:04:29;;;;;;;11.87;6.93;;;3.90;99.90;;;;;;7390217;19;20135;-72
2022/03/06 08:06:55;;;;;;;10.80;6.53;;;4.00;99.70;;;;;;7391575;19;20151;-74
2022/03/06 08:09:21;;;;;;;12.60;6.50;;;4.00;99.70;;;;;;7392295;19;20457;-73
2022/03/06 08:11:47;;;;;;;13.03;7.00;;;4.10;99.80;;;;;;7390560;19;20147;-73
2022/03/06 08:14:12;;;;;;;14.50;6.70;;;4.10;99.70;;;;;;7388819;19;20130;-73
2022/03/06 08:16:38;;;;;;;14.53;7.10;;;4.10;99.60;;;;;;7389655;19;20134;-72
2022/03/06 08:19:05;;;;;;;10.10;6.53;;;4.20;99.60;;;;;;7396402;19;20190;-74
2022/03/06 08:21:31;;;;;;;11.17;6.50;;;4.10;99.70;;;;;;7389581;19;20142;-73
2022/03/06 08:23:57;;;;;;;12.83;7.00;;;4.20;99.50;;;;;;7328244;19;20211;-74
2022/03/06 08:29:01;;;;;;;13.33;7.13;;;4.40;99.40;;;;;;7355033;19;20704;-75
2022/03/06 08:31:27;;;;;;;12.17;6.67;;;4.60;99.30;;;;;;7386947;19;20130;-72
2022/03/06 08:33:53;;;;;;;9.90;6.53;;;4.60;99.20;;;;;;7388865;19;20163;-72
2022/03/06 08:36:19;;;;;;;10.43;6.47;;;4.60;99.10;;;;;;7380479;19;20123;-72
2022/03/06 08:38:45;;;;;;;10.67;7.27;;;4.60;99.10;;;;;;7381246;19;20135;-74
2022/03/06 08:41:11;;;;;;;11.63;6.40;;;4.60;99.10;;;;;;7380446;19;20143;-72
2022/03/06 08:43:37;;;;;;;11.07;6.83;;;4.70;99.00;;;;;;7378454;19;20147;-72
2022/03/06 08:46:03;;;;;;;11.03;6.63;;;4.80;98.90;;;;;;7375112;19;20130;-72
2022/03/06 08:48:32;;;;;;;12.87;7.57;;;4.90;98.60;;;;;;7376424;19;20149;-73
2022/03/06 08:51:02;;;;;;;12.53;6.90;;;4.90;98.50;;;;;;7377315;19;20230;-73
2022/03/06 08:53:27;;;;;;;13.43;7.20;;;4.70;98.80;;;;;;7382559;19;20165;-72
2022/03/06 08:55:53;;;;;;;11.27;6.57;;;4.90;98.50;;;;;;7386228;19;20146;-74
2022/03/06 08:58:19;;;;;;;12.70;7.10;;;5.00;98.40;;;;;;7383764;19;20175;-74
2022/03/06 09:00:45;;;;;;;11.23;6.40;;;5.10;98.30;;;;;;7383248;19;20152;-74
2022/03/06 09:03:10;;;;;;;10.63;6.80;;;5.10;98.20;;;;;;7394569;19;20174;-73
2022/03/06 09:05:40;;;;;;;12.73;6.63;;;5.10;97.90;;;;;;7383898;19;20163;-73
2022/03/06 09:08:09;;;;;;;11.67;7.30;;;5.20;97.80;;;;;;7382062;19;20143;-74
2022/03/06 09:10:36;;;;;;;11.17;6.77;;;5.30;97.40;;;;;;7387271;19;20138;-74
2022/03/06 09:13:02;;;;;;;11.43;6.30;;;5.10;97.80;;;;;;7383968;19;20151;-74
2022/03/06 09:15:28;;;;;;;10.57;6.97;;;5.10;97.70;;;;;;7385954;19;20142;-74
2022/03/06 09:17:54;;;;;;;15.50;6.77;;;5.20;97.70;;;;;;7382226;19;20601;-74
2022/03/06 09:20:20;;;;;;;11.10;6.70;;;5.40;97.70;;;;;;7382739;19;20133;-73
2022/03/06 09:22:46;;;;;;;10.00;5.80;;;5.50;97.40;;;;;;7382150;19;20156;-72
2022/03/06 09:25:12;;;;;;;10.73;6.80;;;5.50;97.20;;;;;;7380495;19;20203;-74
2022/03/06 09:27:38;;;;;;;10.57;6.90;;;5.60;96.80;;;;;;7391724;19;20182;-74
2022/03/06 09:30:07;;;;;;;10.43;6.33;;;5.70;96.70;;;;;;7382372;19;20183;-74
2022/03/06 09:32:33;;;;;;;9.67;6.20;;;5.70;96.50;;;;;;7381797;19;20151;-73
2022/03/06 09:34:59;;;;;;;13.00;7.10;;;5.80;96.40;;;;;;7384351;19;20135;-71
2022/03/06 09:37:25;;;;;;;10.10;5.80;;;5.90;95.90;;;;;;7384321;19;20220;-73
2022/03/06 09:39:50;;;;;;;11.83;6.73;;;5.90;95.70;;;;;;7388128;19;20142;-72
2022/03/06 09:42:21;;;;;;;10.63;6.30;;;6.00;95.40;;;;;;7392279;19;20134;-71
2022/03/06 09:44:49;;;;;;;11.17;6.53;;;6.00;95.40;;;;;;7388313;19;20618;-72
2022/03/06 09:47:16;;;;;;;10.33;6.07;;;6.20;95.40;;;;;;7390158;19;20135;-73
2022/03/06 09:49:45;;;;;;;13.53;6.83;;;6.30;95.10;;;;;;7390934;19;20476;-72
2022/03/06 09:52:12;;;;;;;10.77;6.87;;;6.30;94.90;;;;;;7395214;19;20167;-72
2022/03/06 09:54:39;;;;;;;10.63;6.53;;;6.40;94.70;;;;;;7389597;19;20153;-73
2022/03/06 09:57:05;;;;;;;11.53;6.20;;;6.50;94.40;;;;;;7390879;19;20131;-73
2022/03/06 09:59:32;;;;;;;10.97;6.40;;;6.50;94.10;;;;;;7389255;19;20478;-73
2022/03/06 10:02:05;;;;;;;11.40;6.97;;;6.60;94.00;;;;;;7389527;19;20154;-71
2022/03/06 10:04:34;;;;;;;12.43;6.60;;;6.70;93.70;;;;;;7391962;19;20493;-72
2022/03/06 10:07:04;;;;;;;12.23;6.53;;;6.60;93.40;;;;;;7388298;19;20138;-74
2022/03/06 10:09:48;;;;;;;13.23;6.30;;;6.70;93.00;;;;;;7389686;19;20127;-74
2022/03/06 10:12:29;;;;;;;13.17;6.80;;;6.70;92.90;;;;;;7394998;19;20134;-72
2022/03/06 10:14:56;;;;;;;9.90;7.00;;;6.70;92.90;;;;;;7394024;19;20513;-72
2022/03/06 10:17:24;;;;;;;11.37;6.30;;;6.90;92.60;;;;;;7390827;19;20168;-72
2022/03/06 10:20:01;;;;;;;11.97;6.80;;;7.00;92.50;;;;;;7392084;19;20154;-73
2022/03/06 10:22:39;;;;;;;11.33;6.60;;;7.10;91.90;;;;;;7393302;19;20146;-71
2022/03/06 10:25:09;;;;;;;13.27;7.27;;;7.10;91.40;;;;;;7391780;19;20170;-75
2022/03/06 10:27:57;;;;;;;9.60;6.20;;;7.10;91.30;;;;;;7389523;19;20644;-75
2022/03/06 10:30:32;;;;;;;11.20;5.83;;;7.10;91.00;;;;;;7392087;19;20138;-75
2022/03/06 10:33:07;;;;;;;9.10;6.23;;;7.00;91.00;;;;;;7389810;19;20152;-77
2022/03/06 10:35:39;;;;;;;11.63;6.73;;;7.10;91.10;;;;;;7400123;19;20852;-72
2022/03/06 10:38:20;;;;;;;9.80;6.13;;;7.20;90.80;;;;;;7391222;19;20552;-74
2022/03/06 10:40:50;;;;;;;8.97;5.50;;;7.20;90.70;;;;;;7391813;19;20150;-75
2022/03/06 10:43:28;;;;;;;9.70;6.60;;;7.00;91.60;;;;;;7391777;19;20138;-71
2022/03/06 10:46:13;;;;;;;9.83;6.13;;;7.30;90.90;;;;;;7390397;19;20576;-75
2022/03/06 10:48:42;;;;;;;9.33;5.83;;;7.60;90.70;;;;;;7392777;19;20961;-73
2022/03/06 10:51:12;;;;;;;12.00;6.27;;;8.00;90.30;;;;;;7390520;19;20130;-76
2022/03/06 10:53:39;;;;;;;9.67;5.90;;;8.10;89.70;;;;;;7395624;19;20664;-74
2022/03/06 10:56:13;;;;;;;10.70;6.00;;;8.10;89.20;;;;;;7393536;19;20138;-76
2022/03/06 10:58:44;;;;;;;10.20;6.07;;;7.80;90.00;;;;;;7389399;19;20782;-73
2022/03/06 11:01:11;;;;;;;9.73;6.23;;;7.80;89.80;;;;;;7389055;19;20652;-76
2022/03/06 11:03:38;;;;;;;12.63;6.20;;;7.70;90.10;;;;;;7390293;19;20137;-71
2022/03/06 11:06:09;;;;;;;9.13;5.87;;;7.60;88.90;;;;;;7388474;19;20184;-75
2022/03/06 11:08:36;;;;;;;10.53;6.13;;;7.60;88.10;;;;;;7387714;19;20171;-73
2022/03/06 11:11:05;;;;;;;8.70;5.53;;;7.40;87.70;;;;;;7388745;19;20598;-72
2022/03/06 11:13:31;;;;;;;8.43;5.00;;;7.30;87.40;;;;;;7395180;19;20138;-74
2022/03/06 11:15:58;;;;;;;7.40;4.73;;;7.20;87.10;;;;;;7390918;19;20621;-72
2022/03/06 11:18:26;;;;;;;8.20;5.63;;;7.10;87.90;;;;;;7390214;19;20616;-75
2022/03/06 11:20:57;;;;;;;10.07;5.80;;;7.00;88.40;;;;;;7387376;19;20167;-75
2022/03/06 11:23:26;;;;;;;10.73;5.63;;;7.10;88.60;;;;;;7390924;19;20146;-72
2022/03/06 11:26:13;;;;;;;9.03;5.23;;;7.20;88.00;;;;;;7389024;19;20681;-75
2022/03/06 11:29:17;;;;;;;9.13;5.47;;;7.20;88.10;;;;;;7387504;19;20476;-73
2022/03/06 11:31:55;;;;;;;8.53;5.83;;;7.20;87.40;;;;;;7388163;19;20150;-75
2022/03/06 11:34:34;;;;;;;7.60;4.90;;;7.30;87.20;;;;;;7388244;19;20738;-75
2022/03/06 11:37:10;;;;;;;7.70;5.37;;;7.40;86.80;;;;;;7400794;19;20152;-75
2022/03/06 11:39:35;;;;;;;7.77;5.17;;;7.70;85.90;;;;;;7389839;19;20571;-74
2022/03/06 11:42:06;;;;;;;8.83;5.70;;;8.00;86.40;;;;;;7388985;19;20512;-75
2022/03/06 11:44:41;;;;;;;9.40;5.37;;;8.10;84.70;;;;;;7386302;19;20157;-70
2022/03/06 11:47:25;;;;;;;7.90;5.20;;;8.10;84.60;;;;;;7380220;19;20168;-74
2022/03/06 11:49:56;;;;;;;9.33;5.60;;;8.00;84.50;;;;;;7383723;19;20233;-75
2022/03/06 11:52:33;;;;;;;9.57;5.37;;;8.20;85.30;;;;;;7382462;19;20154;-73
2022/03/06 11:55:00;;;;;;;8.83;5.63;;;8.30;84.10;;;;;;7383476;19;20278;-75
2022/03/06 11:57:40;;;;;;;9.13;5.50;;;8.50;83.00;;;;;;7393486;19;20206;-74
2022/03/06 12:00:21;;;;;;;8.00;5.00;;;8.50;82.60;;;;;;7384996;19;20175;-75
2022/03/06 12:02:56;;;;;;;9.90;5.63;;;8.60;82.10;;;;;;7384222;19;20142;-74
2022/03/06 12:05:42;;;;;;;8.73;5.13;;;8.70;82.00;;;;;;7391372;19;20540;-72
2022/03/06 12:08:11;;;;;;;8.77;5.17;;;8.90;81.10;;;;;;7384810;19;20151;-71
2022/03/06 12:10:39;;;;;;;7.77;4.87;;;8.80;81.00;;;;;;7387162;19;20130;-72
2022/03/06 12:13:26;;;;;;;7.93;4.70;;;9.00;81.20;;;;;;7384397;19;20660;-73
2022/03/06 12:16:07;;;;;;;7.03;5.20;;;8.90;80.90;;;;;;7386768;19;20592;-71
2022/03/06 12:18:34;;;;;;;9.10;5.10;;;8.80;80.70;;;;;;7392966;19;20150;-74
2022/03/06 12:21:00;;;;;;;6.83;4.57;;;8.50;81.20;;;;;;7386066;19;20539;-73
2022/03/06 12:23:28;;;;;;;9.03;5.40;;;8.40;81.60;;;;;;7383437;19;20143;-75
2022/03/06 12:26:00;;;;;;;7.73;4.97;;;8.30;82.10;;;;;;7386240;19;20755;-74
2022/03/06 12:28:37;;;;;;;6.70;4.93;;;8.20;81.40;;;;;;7383373;19;20644;-72
2022/03/06 12:31:41;;;;;;;7.43;4.97;;;8.10;81.50;;;;;;7385312;19;20149;-72
2022/03/06 12:34:37;;;;;;;8.37;5.20;;;8.00;81.50;;;;;;7381728;19;20507;-73
2022/03/06 12:37:04;;;;;;;7.80;5.10;;;7.90;81.50;;;;;;7383917;19;20274;-75
2022/03/06 12:39:34;;;;;;;8.03;5.10;;;7.90;81.50;;;;;;7383465;19;20159;-72
2022/03/06 12:41:59;;;;;;;8.40;5.20;;;7.80;81.90;;;;;;7389794;19;20154;-72
2022/03/06 12:44:30;;;;;;;7.33;4.63;;;7.70;82.40;;;;;;7383697;19;20190;-74
2022/03/06 12:46:56;;;;;;;7.60;4.97;;;7.70;82.40;;;;;;7384584;19;20731;-75
2022/03/06 12:49:23;;;;;;;11.67;5.80;;;7.80;82.50;;;;;;7383292;19;20131;-71
2022/03/06 12:51:51;;;;;;;6.60;4.80;;;7.80;82.50;;;;;;7383653;19;20476;-76
2022/03/06 12:54:23;;;;;;;6.47;4.80;;;7.90;82.20;;;;;;7384361;19;20866;-75
2022/03/06 12:56:54;;;;;;;7.27;4.90;;;8.00;82.30;;;;;;7383550;19;20138;-76